Time;durP1;ratioP1;P1;durP2;ratioP2;P2;SDS_P1;SDS_P2;PMS_P1;PMS_P2;Temp;Humidity;BMP_temperature;BMP_pressure;BME280_temperature;BME280_humidity;BME280_pressure;Samples;Min_cycle;Max_cycle;Signal;HPM_P1;HPM_P2
2023/04/22 00:02:01;;;;;;;8.85;6.55;;;;;;;-145.50;100.00;65435.88;5039834;28;20061;-74
2023/04/22 00:04:28;;;;;;;7.97;6.25;;;;;;;-145.50;100.00;65435.88;5046768;28;20049;-74
2023/04/22 00:06:55;;;;;;;9.40;6.40;;;;;;;-145.50;100.00;65435.88;5038210;28;20461;-72
2023/04/22 00:09:22;;;;;;;8.20;6.13;;;;;;;-145.50;100.00;65435.88;5040526;28;20055;-74
2023/04/22 00:11:49;;;;;;;9.07;7.15;;;;;;;-145.50;100.00;65435.88;5033548;28;20063;-72
2023/04/22 00:14:15;;;;;;;9.45;7.32;;;;;;;-145.50;100.00;65435.88;5033786;28;20084;-72
2023/04/22 00:16:42;;;;;;;9.57;6.90;;;;;;;-145.50;100.00;65435.88;5034703;28;20049;-73
2023/04/22 00:19:09;;;;;;;9.05;7.25;;;;;;;-145.50;100.00;65435.88;5062331;28;20029;-72
2023/04/22 00:21:35;;;;;;;10.60;7.03;;;;;;;-145.50;100.00;65435.88;5074674;28;20039;-71
2023/04/22 00:24:02;;;;;;;11.23;7.18;;;;;;;-145.50;100.00;65435.88;5061098;28;20081;-73
2023/04/22 00:26:28;;;;;;;8.55;6.43;;;;;;;-145.50;100.00;65435.88;5051495;28;20617;-73
2023/04/22 00:28:56;;;;;;;7.75;6.22;;;;;;;-145.50;100.00;65435.88;5039801;28;20405;-73
2023/04/22 00:31:22;;;;;;;9.13;6.10;;;;;;;-145.50;100.00;65435.88;5049293;28;20407;-73
2023/04/22 00:33:49;;;;;;;8.82;6.28;;;;;;;-145.50;100.00;65435.88;5032853;28;20048;-73
2023/04/22 00:36:15;;;;;;;8.70;5.55;;;;;;;-145.50;100.00;65435.88;5034026;28;20049;-73
2023/04/22 00:38:47;;;;;;;7.68;6.38;;;;;;;-145.50;100.00;65435.88;5046257;28;20049;-73
2023/04/22 00:41:13;;;;;;;7.03;5.38;;;;;;;-145.50;100.00;65435.88;5042573;28;20060;-73
2023/04/22 00:43:40;;;;;;;7.50;5.85;;;;;;;-145.50;100.00;65435.88;5048443;28;20045;-74
2023/04/22 00:46:07;;;;;;;7.93;6.20;;;;;;;-145.50;100.00;65435.88;5042375;28;20561;-73
2023/04/22 00:48:36;;;;;;;9.27;6.43;;;;;;;-145.50;100.00;65435.88;5044914;28;20049;-73
2023/04/22 00:51:03;;;;;;;7.75;5.72;;;;;;;-145.50;100.00;65435.88;5042476;28;20152;-73
2023/04/22 00:53:30;;;;;;;8.95;6.20;;;;;;;-145.50;100.00;65435.88;5040452;28;20053;-73
2023/04/22 00:55:57;;;;;;;7.90;5.80;;;;;;;-145.50;100.00;65435.88;5043605;28;20136;-73
2023/04/22 00:58:27;;;;;;;7.57;5.13;;;;;;;-145.50;100.00;65435.88;5041312;28;20057;-73
2023/04/22 01:00:54;;;;;;;7.70;5.40;;;;;;;-145.50;100.00;65435.88;5048034;28;20407;-73
2023/04/22 01:03:22;;;;;;;7.50;5.45;;;;;;;-145.50;100.00;65435.88;5036270;28;20048;-73
2023/04/22 01:05:50;;;;;;;7.90;5.20;;;;;;;-145.50;100.00;65435.88;5042566;28;20143;-73
2023/04/22 01:08:16;;;;;;;7.40;5.45;;;;;;;-145.50;100.00;65435.88;5047194;28;20056;-73
2023/04/22 01:10:43;;;;;;;6.40;5.13;;;;;;;-145.50;100.00;65435.88;5039926;28;20049;-73
2023/04/22 01:13:09;;;;;;;6.18;5.20;;;;;;;-145.50;100.00;65435.88;5047404;28;20092;-73
2023/04/22 01:15:36;;;;;;;6.47;5.07;;;;;;;-145.50;100.00;65435.88;5022339;28;22033;-73
2023/04/22 01:18:03;;;;;;;6.25;5.10;;;;;;;-145.50;100.00;65435.88;5045358;28;20052;-74
2023/04/22 01:20:29;;;;;;;6.53;4.82;;;;;;;-145.50;100.00;65435.88;5039553;28;20052;-72
2023/04/22 01:22:57;;;;;;;7.15;5.35;;;;;;;-145.50;100.00;65435.88;5017313;28;20053;-74
2023/04/22 01:25:24;;;;;;;7.22;5.38;;;;;;;-145.50;100.00;65435.88;5041763;28;20057;-73
2023/04/22 01:27:52;;;;;;;6.53;5.10;;;;;;;-145.50;100.00;65435.88;5021921;28;20134;-73
2023/04/22 01:30:19;;;;;;;8.15;5.72;;;;;;;-145.50;100.00;65435.88;5043871;28;20052;-72
2023/04/22 01:32:46;;;;;;;7.97;5.90;;;;;;;-145.50;100.00;65435.88;5033208;28;20076;-73
2023/04/22 01:35:13;;;;;;;6.97;5.38;;;;;;;-145.50;100.00;65435.88;5045245;28;20135;-73
2023/04/22 01:37:40;;;;;;;9.23;5.50;;;;;;;-145.50;100.00;65435.88;5047238;28;20056;-74
2023/04/22 01:40:08;;;;;;;10.82;6.57;;;;;;;-145.50;100.00;65435.88;5036603;28;20053;-73
2023/04/22 01:42:35;;;;;;;7.93;6.25;;;;;;;-145.50;100.00;65435.88;5046210;28;20088;-74
2023/04/22 01:45:02;;;;;;;8.20;6.35;;;;;;;-145.50;100.00;65435.88;5035252;28;20489;-73
2023/04/22 01:47:29;;;;;;;7.50;6.13;;;;;;;-145.50;100.00;65435.88;5041712;28;20045;-73
2023/04/22 01:49:56;;;;;;;8.35;6.72;;;;;;;-145.50;100.00;65435.88;5039528;28;20065;-74
2023/04/22 01:52:22;;;;;;;8.45;6.55;;;;;;;-145.50;100.00;65435.88;5045257;28;20053;-73
2023/04/22 01:54:49;;;;;;;9.07;6.78;;;;;;;-145.50;100.00;65435.88;5045271;28;20132;-74
2023/04/22 01:57:15;;;;;;;7.75;5.95;;;;;;;-145.50;100.00;65435.88;5021409;28;20049;-74
2023/04/22 01:59:42;;;;;;;8.70;6.55;;;;;;;-145.50;100.00;65435.88;5041912;28;20075;-73
2023/04/22 02:02:08;;;;;;;8.60;6.88;;;;;;;-145.50;100.00;65435.88;5033837;28;20049;-73
2023/04/22 02:04:35;;;;;;;11.20;6.25;;;;;;;-145.50;100.00;65435.88;5017177;28;20052;-73
2023/04/22 02:07:02;;;;;;;8.98;6.55;;;;;;;-145.50;100.00;65435.88;5039451;28;20080;-74
2023/04/22 02:09:28;;;;;;;8.40;6.57;;;;;;;-145.50;100.00;65435.88;5045804;28;20417;-70
2023/04/22 02:11:54;;;;;;;19.90;7.25;;;;;;;-145.50;100.00;65435.88;5049196;28;20040;-69
2023/04/22 02:14:21;;;;;;;7.85;6.50;;;;;;;-145.50;100.00;65435.88;5036363;28;20060;-68
2023/04/22 02:16:47;;;;;;;7.88;6.30;;;;;;;-145.50;100.00;65435.88;5043889;28;20136;-70
2023/04/22 02:19:14;;;;;;;9.07;6.60;;;;;;;-145.50;100.00;65435.88;5030690;28;20045;-69
2023/04/22 02:21:40;;;;;;;9.85;7.07;;;;;;;-145.50;100.00;65435.88;5048051;28;20128;-71
2023/04/22 02:24:07;;;;;;;11.38;7.25;;;;;;;-145.50;100.00;65435.88;5023478;28;20044;-71
2023/04/22 02:26:34;;;;;;;8.68;5.80;;;;;;;-145.50;100.00;65435.88;5045965;28;20428;-69
2023/04/22 02:29:00;;;;;;;7.95;6.35;;;;;;;-145.50;100.00;65435.88;5038235;28;20635;-69
2023/04/22 02:31:27;;;;;;;8.43;6.82;;;;;;;-145.50;100.00;65435.88;5034432;28;20044;-69
2023/04/22 02:33:53;;;;;;;10.18;7.85;;;;;;;-145.50;100.00;65435.88;5046183;28;20413;-69
2023/04/22 02:36:20;;;;;;;9.50;7.35;;;;;;;-145.50;100.00;65435.88;5016077;28;20049;-68
2023/04/22 02:38:46;;;;;;;10.07;7.68;;;;;;;-145.50;100.00;65435.88;5043057;28;20049;-69
2023/04/22 02:41:13;;;;;;;9.93;7.82;;;;;;;-145.50;100.00;65435.88;5025038;28;20053;-70
2023/04/22 02:43:44;;;;;;;9.30;7.40;;;;;;;-145.50;100.00;65435.88;5032902;28;20103;-68
2023/04/22 02:46:12;;;;;;;10.20;7.90;;;;;;;-145.50;100.00;65435.88;5040040;28;20451;-69
2023/04/22 02:48:39;;;;;;;11.90;8.90;;;;;;;-145.50;100.00;65435.88;5044047;28;20085;-69
2023/04/22 02:51:05;;;;;;;9.98;7.78;;;;;;;-145.50;100.00;65435.88;5043766;28;20049;-68
2023/04/22 02:53:32;;;;;;;10.57;8.15;;;;;;;-145.50;100.00;65435.88;5048023;28;20131;-70
2023/04/22 02:55:58;;;;;;;11.50;8.48;;;;;;;-145.50;100.00;65435.88;5051183;28;20052;-68
2023/04/22 02:58:25;;;;;;;11.43;9.23;;;;;;;-145.50;100.00;65435.88;5042256;28;20053;-70
2023/04/22 03:00:52;;;;;;;12.45;9.93;;;;;;;-145.50;100.00;65435.88;5044859;28;20053;-70
2023/04/22 03:03:19;;;;;;;13.05;10.00;;;;;;;-145.50;100.00;65435.88;5026893;28;20048;-68
2023/04/22 03:05:46;;;;;;;16.88;10.55;;;;;;;-145.50;100.00;65435.88;5039145;28;20433;-70
2023/04/22 03:08:12;;;;;;;13.38;10.10;;;;;;;-145.50;100.00;65435.88;5046832;28;20083;-69
2023/04/22 03:10:39;;;;;;;12.27;9.63;;;;;;;-145.50;100.00;65435.88;5039205;28;20088;-69
2023/04/22 03:13:05;;;;;;;14.48;10.55;;;;;;;-145.50;100.00;65435.88;5035929;28;20198;-68
2023/04/22 03:15:31;;;;;;;12.88;9.48;;;;;;;-145.50;100.00;65435.88;5046517;28;20094;-68
2023/04/22 03:17:58;;;;;;;12.32;9.77;;;;;;;-145.50;100.00;65435.88;5040455;28;20416;-69
2023/04/22 03:20:25;;;;;;;14.25;10.02;;;;;;;-145.50;100.00;65435.88;5049191;28;20057;-70
2023/04/22 03:22:51;;;;;;;14.57;11.02;;;;;;;-145.50;100.00;65435.88;5038694;28;20450;-71
2023/04/22 03:25:17;;;;;;;12.02;9.52;;;;;;;-145.50;100.00;65435.88;5047846;28;20603;-69
2023/04/22 03:27:44;;;;;;;14.27;10.48;;;;;;;-145.50;100.00;65435.88;5042140;28;20513;-71
2023/04/22 03:30:11;;;;;;;14.00;11.48;;;;;;;-145.50;100.00;65435.88;5043270;28;20479;-68
2023/04/22 03:32:37;;;;;;;15.05;11.48;;;;;;;-145.50;100.00;65435.88;5033849;28;20052;-69
2023/04/22 03:35:04;;;;;;;14.68;11.15;;;;;;;-145.50;100.00;65435.88;5023347;28;20056;-69
2023/04/22 03:37:31;;;;;;;15.93;11.68;;;;;;;-145.50;100.00;65435.88;5049829;28;20562;-68
2023/04/22 03:39:57;;;;;;;15.05;11.43;;;;;;;-145.50;100.00;65435.88;5039792;28;20443;-70
2023/04/22 03:42:24;;;;;;;13.48;10.70;;;;;;;-145.50;100.00;65435.88;5045032;28;20053;-69
2023/04/22 03:44:51;;;;;;;14.50;10.63;;;;;;;-145.50;100.00;65435.88;5047737;28;20647;-69
2023/04/22 03:47:17;;;;;;;12.93;10.77;;;;;;;-145.50;100.00;65435.88;5036338;28;20053;-71
2023/04/22 03:49:44;;;;;;;12.40;9.70;;;;;;;-145.50;100.00;65435.88;5045062;28;20145;-68
2023/04/22 03:52:10;;;;;;;15.25;11.38;;;;;;;-145.50;100.00;65435.88;5047146;28;20485;-69
2023/04/22 03:54:37;;;;;;;13.75;11.65;;;;;;;-145.50;100.00;65435.88;5041667;28;20053;-70
2023/04/22 03:57:03;;;;;;;16.48;12.23;;;;;;;-145.50;100.00;65435.88;5042354;28;20088;-68
2023/04/22 03:59:30;;;;;;;17.27;11.82;;;;;;;-145.50;100.00;65435.88;5028797;28;20536;-69
2023/04/22 04:01:57;;;;;;;16.00;12.68;;;;;;;-145.50;100.00;65435.88;5047285;28;20064;-70
2023/04/22 04:04:23;;;;;;;15.23;11.93;;;;;;;-145.50;100.00;65435.88;5046159;28;20519;-68
2023/04/22 04:06:50;;;;;;;14.43;11.77;;;;;;;-145.50;100.00;65435.88;5028981;28;20060;-71
2023/04/22 04:09:17;;;;;;;16.60;12.07;;;;;;;-145.50;100.00;65435.88;5039885;28;20350;-69
2023/04/22 04:11:43;;;;;;;18.80;13.07;;;;;;;-145.50;100.00;65435.88;5039037;28;20131;-69
2023/04/22 04:14:10;;;;;;;18.05;12.50;;;;;;;-145.50;100.00;65435.88;5037952;28;20052;-71
2023/04/22 04:16:37;;;;;;;17.23;13.30;;;;;;;-145.50;100.00;65435.88;5047279;28;20041;-68
2023/04/22 04:19:05;;;;;;;15.10;12.65;;;;;;;-145.50;100.00;65435.88;5049950;28;20059;-68
2023/04/22 04:21:32;;;;;;;16.92;12.32;;;;;;;-145.50;100.00;65435.88;5037834;28;20059;-69
2023/04/22 04:23:59;;;;;;;16.52;13.25;;;;;;;-145.50;100.00;65435.88;5051887;28;20098;-69
2023/04/22 04:26:28;;;;;;;17.00;13.15;;;;;;;-145.50;100.00;65435.88;5049498;28;20041;-68
2023/04/22 04:28:54;;;;;;;17.65;13.45;;;;;;;-145.50;100.00;65435.88;5050197;28;20053;-68
2023/04/22 04:31:23;;;;;;;17.27;13.75;;;;;;;-145.50;100.00;65435.88;5046973;28;20136;-69
2023/04/22 04:33:51;;;;;;;18.02;14.32;;;;;;;-145.50;100.00;65435.88;5022931;28;20098;-70
2023/04/22 04:36:18;;;;;;;19.40;14.43;;;;;;;-145.50;100.00;65435.88;5043282;28;20096;-70
2023/04/22 04:38:46;;;;;;;18.70;15.25;;;;;;;-145.50;100.00;65435.88;5037757;28;20049;-69
2023/04/22 04:41:13;;;;;;;17.47;14.13;;;;;;;-145.50;100.00;65435.88;5052460;28;20057;-68
2023/04/22 04:43:39;;;;;;;16.98;13.52;;;;;;;-145.50;100.00;65435.88;5042017;28;20480;-68
2023/04/22 04:46:07;;;;;;;18.70;14.70;;;;;;;-145.50;100.00;65435.88;5048292;28;20600;-68
2023/04/22 04:48:34;;;;;;;21.38;14.65;;;;;;;-145.50;100.00;65435.88;5029973;28;20048;-70
2023/04/22 04:51:03;;;;;;;20.17;14.82;;;;;;;-145.50;100.00;65435.88;5026343;28;20060;-68
2023/04/22 04:53:29;;;;;;;18.55;15.05;;;;;;;-145.50;100.00;65435.88;5053784;28;20076;-68
2023/04/22 04:55:55;;;;;;;18.88;15.02;;;;;;;-145.50;100.00;65435.88;5021665;28;20046;-70
2023/04/22 04:58:22;;;;;;;21.75;16.25;;;;;;;-145.50;100.00;65435.88;5051612;28;20052;-70
2023/04/22 05:00:48;;;;;;;20.10;15.68;;;;;;;-145.50;100.00;65435.88;5046931;28;20070;-70
2023/04/22 05:03:15;;;;;;;19.35;15.15;;;;;;;-145.50;100.00;65435.88;5048130;28;20055;-68
2023/04/22 05:05:42;;;;;;;20.98;16.38;;;;;;;-145.50;100.00;65435.88;5051693;28;20116;-69
2023/04/22 05:08:08;;;;;;;22.02;16.00;;;;;;;-145.50;100.00;65435.88;5050208;28;20071;-69
2023/04/22 05:10:35;;;;;;;22.83;16.02;;;;;;;-145.50;100.00;65435.88;5031981;28;20520;-70
2023/04/22 05:13:02;;;;;;;22.17;16.15;;;;;;;-145.50;100.00;65435.88;5047572;28;20057;-68
2023/04/22 05:15:30;;;;;;;20.83;16.35;;;;;;;-145.50;100.00;65435.88;5052959;28;20504;-69
2023/04/22 05:17:56;;;;;;;22.23;16.92;;;;;;;-145.50;100.00;65435.88;5041593;28;20054;-68
2023/04/22 05:20:23;;;;;;;20.45;16.38;;;;;;;-145.50;100.00;65435.88;5052352;28;20091;-68
2023/04/22 05:22:49;;;;;;;20.90;16.90;;;;;;;-145.50;100.00;65435.88;5047606;28;20081;-70
2023/04/22 05:25:16;;;;;;;22.90;18.30;;;;;;;-145.50;100.00;65435.88;5021712;28;20136;-69
2023/04/22 05:27:42;;;;;;;20.90;16.25;;;;;;;-145.50;100.00;65435.88;5045839;28;20041;-69
2023/04/22 05:30:09;;;;;;;24.00;16.75;;;;;;;-145.50;100.00;65435.88;5047512;28;20452;-69
2023/04/22 05:32:36;;;;;;;22.17;16.20;;;;;;;-145.50;100.00;65435.88;5031552;28;20520;-68
2023/04/22 05:35:02;;;;;;;19.20;16.23;;;;;;;-145.50;100.00;65435.88;5052458;28;20084;-68
2023/04/22 05:37:29;;;;;;;21.77;15.82;;;;;;;-145.50;100.00;65435.88;5050748;28;20536;-69
2023/04/22 05:39:56;;;;;;;20.85;16.52;;;;;;;-145.50;100.00;65435.88;5049108;28;20053;-69
2023/04/22 05:42:22;;;;;;;20.92;15.80;;;;;;;-145.50;100.00;65435.88;5044070;28;20045;-69
2023/04/22 05:44:49;;;;;;;22.20;17.33;;;;;;;-145.50;100.00;65435.88;5047231;28;20080;-68
2023/04/22 05:47:15;;;;;;;21.77;16.70;;;;;;;-145.50;100.00;65435.88;5042482;28;20492;-68
2023/04/22 05:49:42;;;;;;;19.55;15.32;;;;;;;-145.50;100.00;65435.88;5038744;28;20089;-70
2023/04/22 05:52:08;;;;;;;21.60;16.48;;;;;;;-145.50;100.00;65435.88;5046405;28;20486;-70
2023/04/22 05:54:36;;;;;;;18.38;14.63;;;;;;;-145.50;100.00;65435.88;5008196;28;20048;-70
2023/04/22 05:57:02;;;;;;;20.55;16.08;;;;;;;-145.50;100.00;65435.88;5041177;28;20082;-69
2023/04/22 05:59:29;;;;;;;22.33;17.63;;;;;;;-145.50;100.00;65435.88;5048285;28;20061;-68
2023/04/22 06:01:55;;;;;;;21.42;16.40;;;;;;;-145.50;100.00;65435.88;5057146;28;20131;-69
2023/04/22 06:04:22;;;;;;;20.70;16.25;;;;;;;-145.50;100.00;65435.88;5051022;28;20056;-68
2023/04/22 06:06:52;;;;;;;21.05;16.58;;;;;;;-145.50;100.00;65435.88;5057539;28;20048;-70
2023/04/22 06:09:20;;;;;;;23.48;17.10;;;;;;;-145.50;100.00;65435.88;5034153;28;20048;-71
2023/04/22 06:11:47;;;;;;;22.52;16.90;;;;;;;-145.50;100.00;65435.88;5017813;28;20051;-69
2023/04/22 06:14:13;;;;;;;25.15;17.27;;;;;;;-145.50;100.00;65435.88;5047767;28;20131;-69
2023/04/22 06:16:40;;;;;;;21.35;17.25;;;;;;;-145.50;100.00;65435.88;5045799;28;20255;-70
2023/04/22 06:19:06;;;;;;;22.77;18.10;;;;;;;-145.50;100.00;65435.88;5027910;28;20053;-68
2023/04/22 06:21:35;;;;;;;19.90;16.35;;;;;;;-145.50;100.00;65435.88;5043690;28;20052;-69
2023/04/22 06:24:04;;;;;;;18.95;13.82;;;;;;;-145.50;100.00;65435.88;5050066;28;20130;-69
2023/04/22 06:26:31;;;;;;;18.23;14.48;;;;;;;-145.50;100.00;65435.88;5048598;28;20053;-69
2023/04/22 06:28:57;;;;;;;21.90;16.98;;;;;;;-145.50;100.00;65435.88;5024344;28;20072;-68
2023/04/22 06:31:24;;;;;;;20.85;16.17;;;;;;;-145.50;100.00;65435.88;5052875;28;20070;-68
2023/04/22 06:33:50;;;;;;;21.20;17.35;;;;;;;-145.50;100.00;65435.88;5040215;28;20052;-69
2023/04/22 06:36:17;;;;;;;21.95;16.95;;;;;;;-145.50;100.00;65435.88;5048358;28;20076;-69
2023/04/22 06:38:43;;;;;;;23.77;18.50;;;;;;;-145.50;100.00;65435.88;5044311;28;20049;-69
2023/04/22 06:41:09;;;;;;;23.30;17.15;;;;;;;-145.50;100.00;65435.88;5055016;28;20056;-69
2023/04/22 06:43:36;;;;;;;25.13;17.67;;;;;;;-145.50;100.00;65435.88;5059202;28;20075;-70
2023/04/22 06:46:02;;;;;;;21.52;16.73;;;;;;;-145.50;100.00;65435.88;5069156;28;20036;-70
2023/04/22 06:48:29;;;;;;;21.92;16.30;;;;;;;-145.50;100.00;65435.88;5056526;28;20608;-69
2023/04/22 06:50:56;;;;;;;22.65;17.10;;;;;;;-145.50;100.00;65435.88;5054839;28;20099;-68
2023/04/22 06:53:22;;;;;;;22.95;17.58;;;;;;;-145.50;100.00;65435.88;5049123;28;20106;-68
2023/04/22 06:55:49;;;;;;;23.42;18.20;;;;;;;-145.50;100.00;65435.88;5053790;28;20052;-69
2023/04/22 06:58:15;;;;;;;28.05;20.23;;;;;;;-145.50;100.00;65435.88;5028499;28;20044;-69
2023/04/22 07:00:42;;;;;;;26.90;19.83;;;;;;;-145.50;100.00;65435.88;5046617;28;20075;-69
2023/04/22 07:03:08;;;;;;;23.60;19.20;;;;;;;-145.50;100.00;65435.88;5034040;28;20055;-69
2023/04/22 07:05:35;;;;;;;21.65;17.20;;;;;;;-145.50;100.00;65435.88;5030674;28;20102;-69
2023/04/22 07:08:04;;;;;;;23.00;16.85;;;;;;;-145.50;100.00;65435.88;5017926;28;20052;-70
2023/04/22 07:10:32;;;;;;;24.55;18.63;;;;;;;-145.50;100.00;65435.88;5042076;28;20048;-69
2023/04/22 07:12:59;;;;;;;24.27;19.27;;;;;;;-145.50;100.00;65435.88;5045039;28;20143;-70
2023/04/22 07:15:25;;;;;;;26.10;19.60;;;;;;;-145.50;100.00;65435.88;5035440;28;20057;-69
2023/04/22 07:17:52;;;;;;;24.25;18.73;;;;;;;-145.50;100.00;65435.88;5046844;28;20068;-68
2023/04/22 07:20:18;;;;;;;26.13;19.35;;;;;;;-145.50;100.00;65435.88;5040267;28;20187;-68
2023/04/22 07:22:45;;;;;;;26.63;18.38;;;;;;;-145.50;100.00;65435.88;5053919;28;20049;-71
2023/04/22 07:25:11;;;;;;;24.27;17.73;;;;;;;-145.50;100.00;65435.88;5036584;28;20052;-71
2023/04/22 07:27:38;;;;;;;23.40;14.63;;;;;;;-145.50;100.00;65435.88;5045735;28;20049;-68
2023/04/22 07:30:06;;;;;;;22.17;17.23;;;;;;;-145.50;100.00;65435.88;5008494;28;20057;-68
2023/04/22 07:32:33;;;;;;;23.65;17.13;;;;;;;-145.50;100.00;65435.88;5031318;28;20053;-68
2023/04/22 07:35:00;;;;;;;19.33;14.88;;;;;;;-145.50;100.00;65435.88;5045514;28;20547;-69
2023/04/22 07:37:26;;;;;;;20.90;15.95;;;;;;;-145.50;100.00;65435.88;5020890;28;20407;-71
2023/04/22 07:39:53;;;;;;;22.38;17.38;;;;;;;-145.50;100.00;65435.88;5026174;28;20052;-69
2023/04/22 07:42:19;;;;;;;19.60;14.57;;;;;;;-145.50;100.00;65435.88;5037920;28;20053;-70
2023/04/22 07:44:46;;;;;;;16.35;11.30;;;;;;;-145.50;100.00;65435.88;5039599;28;20498;-69
2023/04/22 07:47:12;;;;;;;19.50;14.55;;;;;;;-145.50;100.00;65435.88;5054016;28;20052;-69
2023/04/22 07:49:38;;;;;;;23.30;15.93;;;;;;;-145.50;100.00;65435.88;5044012;28;20048;-70
2023/04/22 07:52:05;;;;;;;17.60;13.35;;;;;;;-145.50;100.00;65435.88;5044835;28;20064;-69
2023/04/22 07:54:32;;;;;;;16.40;10.73;;;;;;;-145.50;100.00;65435.88;5047838;28;20068;-69
2023/04/22 07:56:58;;;;;;;17.88;12.95;;;;;;;-145.50;100.00;65435.88;5043948;28;20543;-70
2023/04/22 07:59:25;;;;;;;19.02;12.80;;;;;;;-145.50;100.00;65435.88;5043750;28;20639;-72
2023/04/22 08:01:52;;;;;;;15.68;11.88;;;;;;;-145.50;100.00;65435.88;5043679;28;20496;-71
2023/04/22 08:04:21;;;;;;;16.88;11.80;;;;;;;-145.50;100.00;65435.88;5043105;28;20049;-70
2023/04/22 08:06:49;;;;;;;14.60;10.98;;;;;;;-145.50;100.00;65435.88;5032696;28;20120;-69
2023/04/22 08:09:15;;;;;;;15.25;10.90;;;;;;;-145.50;100.00;65435.88;5048635;28;20048;-71
2023/04/22 08:11:42;;;;;;;13.55;10.50;;;;;;;-145.50;100.00;65435.88;5031007;28;20781;-70
2023/04/22 08:14:08;;;;;;;13.88;11.25;;;;;;;-145.50;100.00;65435.88;5019496;28;20138;-71
2023/04/22 08:16:36;;;;;;;16.10;11.23;;;;;;;-145.50;100.00;65435.88;5025716;28;20713;-68
2023/04/22 08:19:03;;;;;;;11.68;8.75;;;;;;;-145.50;100.00;65435.88;5039078;28;20402;-70
2023/04/22 08:21:30;;;;;;;13.55;11.18;;;;;;;-145.50;100.00;65435.88;5049786;28;20056;-69
2023/04/22 08:23:56;;;;;;;13.20;10.68;;;;;;;-145.50;100.00;65435.88;5042001;28;20497;-70
2023/04/22 08:26:23;;;;;;;14.52;10.80;;;;;;;-145.50;100.00;65435.88;5055707;28;20873;-69
2023/04/22 08:28:49;;;;;;;13.57;10.32;;;;;;;-145.50;100.00;65435.88;5035144;28;20052;-69
2023/04/22 08:31:16;;;;;;;12.65;10.25;;;;;;;-145.50;100.00;65435.88;5056330;28;20061;-70
2023/04/22 08:33:42;;;;;;;10.68;8.45;;;;;;;-145.50;100.00;65435.88;5047310;28;20041;-69
2023/04/22 08:36:09;;;;;;;12.10;9.27;;;;;;;-145.50;100.00;65435.88;5047877;28;20738;-70
2023/04/22 08:38:36;;;;;;;15.50;9.75;;;;;;;-145.50;100.00;65435.88;5051189;28;20550;-69
2023/04/22 08:41:04;;;;;;;11.98;9.68;;;;;;;-145.50;100.00;65435.88;5039306;28;20053;-69
2023/04/22 08:43:31;;;;;;;13.27;9.75;;;;;;;-145.50;100.00;65435.88;5044419;28;20973;-71
2023/04/22 08:45:58;;;;;;;12.52;9.73;;;;;;;-145.50;100.00;65435.88;5051844;28;20057;-72
2023/04/22 08:48:25;;;;;;;13.05;8.98;;;;;;;-145.50;100.00;65435.88;5054073;28;20565;-72
2023/04/22 08:50:53;;;;;;;14.18;9.25;;;;;;;-145.50;100.00;65435.88;5051784;28;20557;-69
2023/04/22 08:53:20;;;;;;;10.20;8.60;;;;;;;-145.50;100.00;65435.88;5040579;28;20520;-69
2023/04/22 08:55:50;;;;;;;13.80;8.70;;;;;;;-145.50;100.00;65435.88;5053747;28;20295;-70
2023/04/22 08:58:17;;;;;;;10.43;8.70;;;;;;;-145.50;100.00;65435.88;5019326;28;20056;-69
2023/04/22 09:00:44;;;;;;;9.98;7.82;;;;;;;-145.50;100.00;65435.88;5030043;28;20531;-69
2023/04/22 09:03:11;;;;;;;9.65;7.50;;;;;;;-145.50;100.00;65435.88;5053335;28;20057;-70
2023/04/22 09:05:39;;;;;;;8.02;6.82;;;;;;;-145.50;100.00;65435.88;5042776;28;20087;-71
2023/04/22 09:08:06;;;;;;;9.88;8.23;;;;;;;-145.50;100.00;65435.88;5042730;28;20161;-71
2023/04/22 09:10:36;;;;;;;8.52;7.28;;;;;;;-145.50;100.00;65435.88;5014844;28;20049;-71
2023/04/22 09:13:05;;;;;;;11.52;7.78;;;;;;;-145.50;100.00;65435.88;5044691;28;20049;-69
2023/04/22 09:15:32;;;;;;;10.23;7.85;;;;;;;-145.50;100.00;65435.88;5041144;28;20076;-72
2023/04/22 09:18:02;;;;;;;9.63;7.43;;;;;;;-145.50;100.00;65435.88;5046845;28;20052;-70
2023/04/22 09:20:29;;;;;;;10.00;7.68;;;;;;;-145.50;100.00;65435.88;5040144;28;20052;-70
2023/04/22 09:23:00;;;;;;;10.30;7.20;;;;;;;-145.50;100.00;65435.88;5045715;28;20106;-70
2023/04/22 09:25:27;;;;;;;10.45;7.82;;;;;;;-145.50;100.00;65435.88;5004158;28;20474;-71
2023/04/22 09:27:56;;;;;;;9.55;7.30;;;;;;;-145.50;100.00;65435.88;5043636;28;20135;-69
2023/04/22 09:30:32;;;;;;;9.75;7.25;;;;;;;-145.50;100.00;65435.88;5044995;28;20049;-70
2023/04/22 09:33:03;;;;;;;9.45;7.88;;;;;;;-145.50;100.00;65435.88;5039305;28;20136;-72
2023/04/22 09:35:32;;;;;;;11.38;7.60;;;;;;;-145.50;100.00;65435.88;5046070;28;20080;-70
2023/04/22 09:38:01;;;;;;;9.30;7.38;;;;;;;-145.50;100.00;65435.88;5051315;28;20056;-70
2023/04/22 09:40:30;;;;;;;8.40;7.15;;;;;;;-145.50;100.00;65435.88;5053397;28;20155;-71
2023/04/22 09:42:59;;;;;;;9.77;7.25;;;;;;;-145.50;100.00;65435.88;5029555;28;20084;-70
2023/04/22 09:45:35;;;;;;;9.48;6.53;;;;;;;-145.50;100.00;65435.88;5029796;28;20047;-71
2023/04/22 09:48:07;;;;;;;9.63;7.32;;;;;;;-145.50;100.00;65435.88;5027009;28;20061;-71
2023/04/22 09:50:33;;;;;;;10.93;6.43;;;;;;;-145.50;100.00;65435.88;5044312;28;20140;-71
2023/04/22 09:53:06;;;;;;;8.43;7.05;;;;;;;-145.50;100.00;65435.88;5032241;28;20084;-71
2023/04/22 09:55:36;;;;;;;9.32;8.00;;;;;;;-145.50;100.00;65435.88;5020067;28;20055;-70
2023/04/22 09:58:14;;;;;;;9.10;6.93;;;;;;;-145.50;100.00;65435.88;5049586;28;20127;-71
2023/04/22 10:00:47;;;;;;;;;;;;;;;-145.50;100.00;65435.88;5035912;28;20053;-71
2023/04/22 10:03:14;;;;;;;9.50;6.70;;;;;;;-145.50;100.00;65435.88;5031991;28;19980;-70
2023/04/22 10:05:41;;;;;;;7.78;6.72;;;;;;;-145.50;100.00;65435.88;5041561;28;20103;-71
2023/04/22 10:08:09;;;;;;;8.52;6.28;;;;;;;-145.50;100.00;65435.88;5025860;28;20052;-72
2023/04/22 10:10:36;;;;;;;8.10;6.65;;;;;;;-145.50;100.00;65435.88;5045986;28;20048;-70
2023/04/22 10:13:04;;;;;;;9.57;7.22;;;;;;;-145.50;100.00;65435.88;5024876;28;20141;-69
2023/04/22 10:15:44;;;;;;;8.60;7.00;;;;;;;-145.50;100.00;65435.88;5040766;28;20053;-70
2023/04/22 10:18:15;;;;;;;5.70;4.70;;;;;;;-145.50;100.00;65435.88;5023231;28;20509;-73
2023/04/22 10:20:42;;;;;;;7.20;6.03;;;;;;;-145.50;100.00;65435.88;5040345;28;20076;-72
2023/04/22 10:23:17;;;;;;;8.65;5.93;;;;;;;-145.50;100.00;65435.88;5051340;28;20135;-71
2023/04/22 10:25:50;;;;;;;11.43;6.30;;;;;;;-145.50;100.00;65435.88;5030845;28;20099;-72
2023/04/22 10:28:17;;;;;;;6.53;5.22;;;;;;;-145.50;100.00;65435.88;5046939;28;20125;-73
2023/04/22 10:30:43;;;;;;;9.50;6.88;;;;;;;-145.50;100.00;65435.88;5039766;28;20057;-70
2023/04/22 10:33:30;;;;;;;9.32;6.68;;;;;;;-145.50;100.00;65435.88;5045369;28;20130;-71
2023/04/22 10:36:18;;;;;;;8.50;6.38;;;;;;;-145.50;100.00;65435.88;5006693;28;20076;-70
2023/04/22 10:38:53;;;;;;;9.18;5.85;;;;;;;-145.50;100.00;65435.88;5044486;28;20053;-71
2023/04/22 10:41:31;;;;;;;8.07;6.32;;;;;;;-145.50;100.00;65435.88;5040867;28;20079;-71
2023/04/22 10:44:00;;;;;;;7.80;6.45;;;;;;;-145.50;100.00;65435.88;5047276;28;20056;-71
2023/04/22 10:46:33;;;;;;;9.18;6.22;;;;;;;-145.50;100.00;65435.88;5047234;28;20118;-70
2023/04/22 10:49:11;;;;;;;8.00;6.65;;;;;;;-145.50;100.00;65435.88;5014547;28;20054;-73
2023/04/22 10:51:46;;;;;;;9.02;6.43;;;;;;;-145.50;100.00;65435.88;5024410;28;20063;-71
2023/04/22 10:54:26;;;;;;;7.32;6.10;;;;;;;-145.50;100.00;65435.88;5034441;28;20745;-71
2023/04/22 10:57:06;;;;;;;8.60;6.28;;;;;;;-145.50;100.00;65435.88;5050701;28;20067;-71
2023/04/22 10:59:46;;;;;;;8.45;5.90;;;;;;;-145.50;100.00;65435.88;5021190;28;20421;-71
2023/04/22 11:02:17;;;;;;;7.05;6.28;;;;;;;-145.50;100.00;65435.88;5040160;28;20052;-70
2023/04/22 11:04:44;;;;;;;7.43;5.53;;;;;;;-145.50;100.00;65435.88;5034992;28;20519;-71